sensor_id;sensor_type;location;lat;lon;timestamp;P1;durP1;ratioP1;P2;durP2;ratioP2
56122;SDS011;42426;46.104;19.656;2024-01-16T00:00:58;34.75;;;14.68;;
56122;SDS011;42426;46.104;19.656;2024-01-16T00:03:24;35.15;;;14.32;;
56122;SDS011;42426;46.104;19.656;2024-01-16T00:05:51;20.80;;;11.82;;
56122;SDS011;42426;46.104;19.656;2024-01-16T00:08:17;22.85;;;11.40;;
56122;SDS011;42426;46.104;19.656;2024-01-16T00:10:43;27.13;;;12.38;;
56122;SDS011;42426;46.104;19.656;2024-01-16T00:13:09;22.40;;;10.85;;
56122;SDS011;42426;46.104;19.656;2024-01-16T00:15:35;18.50;;;10.95;;
56122;SDS011;42426;46.104;19.656;2024-01-16T00:18:01;16.40;;;9.30;;
56122;SDS011;42426;46.104;19.656;2024-01-16T00:20:27;14.90;;;9.43;;
56122;SDS011;42426;46.104;19.656;2024-01-16T00:22:53;16.90;;;10.00;;
56122;SDS011;42426;46.104;19.656;2024-01-16T00:25:19;17.85;;;10.13;;
56122;SDS011;42426;46.104;19.656;2024-01-16T00:27:46;31.80;;;14.25;;
56122;SDS011;42426;46.104;19.656;2024-01-16T00:30:12;21.85;;;12.38;;
56122;SDS011;42426;46.104;19.656;2024-01-16T00:32:39;22.20;;;11.40;;
56122;SDS011;42426;46.104;19.656;2024-01-16T00:35:05;15.50;;;8.80;;
56122;SDS011;42426;46.104;19.656;2024-01-16T00:37:32;17.17;;;8.80;;
56122;SDS011;42426;46.104;19.656;2024-01-16T00:39:59;14.10;;;8.18;;
56122;SDS011;42426;46.104;19.656;2024-01-16T00:42:25;12.65;;;8.25;;
56122;SDS011;42426;46.104;19.656;2024-01-16T00:44:52;16.88;;;8.55;;
56122;SDS011;42426;46.104;19.656;2024-01-16T00:47:19;16.70;;;9.00;;
56122;SDS011;42426;46.104;19.656;2024-01-16T00:49:48;16.20;;;8.57;;
56122;SDS011;42426;46.104;19.656;2024-01-16T00:52:14;17.48;;;10.27;;
56122;SDS011;42426;46.104;19.656;2024-01-16T00:54:40;26.92;;;13.43;;
56122;SDS011;42426;46.104;19.656;2024-01-16T00:57:07;19.83;;;10.50;;
56122;SDS011;42426;46.104;19.656;2024-01-16T00:59:33;28.70;;;15.70;;
56122;SDS011;42426;46.104;19.656;2024-01-16T01:01:59;16.30;;;9.68;;
56122;SDS011;42426;46.104;19.656;2024-01-16T01:04:25;18.60;;;10.75;;
56122;SDS011;42426;46.104;19.656;2024-01-16T01:06:51;23.25;;;11.48;;
56122;SDS011;42426;46.104;19.656;2024-01-16T01:09:18;18.00;;;11.95;;
56122;SDS011;42426;46.104;19.656;2024-01-16T01:11:45;20.08;;;11.05;;
56122;SDS011;42426;46.104;19.656;2024-01-16T01:14:11;23.88;;;13.25;;
56122;SDS011;42426;46.104;19.656;2024-01-16T01:16:37;16.10;;;10.60;;
56122;SDS011;42426;46.104;19.656;2024-01-16T01:19:03;22.40;;;11.50;;
56122;SDS011;42426;46.104;19.656;2024-01-16T01:21:30;16.70;;;9.02;;
56122;SDS011;42426;46.104;19.656;2024-01-16T01:23:56;17.80;;;9.65;;
56122;SDS011;42426;46.104;19.656;2024-01-16T01:26:22;17.70;;;10.02;;
56122;SDS011;42426;46.104;19.656;2024-01-16T01:28:48;15.73;;;8.35;;
56122;SDS011;42426;46.104;19.656;2024-01-16T01:31:14;17.38;;;8.05;;
56122;SDS011;42426;46.104;19.656;2024-01-16T01:33:40;16.88;;;9.68;;
56122;SDS011;42426;46.104;19.656;2024-01-16T01:36:07;14.68;;;8.93;;
56122;SDS011;42426;46.104;19.656;2024-01-16T01:38:33;14.85;;;8.73;;
56122;SDS011;42426;46.104;19.656;2024-01-16T01:41:00;13.85;;;8.65;;
56122;SDS011;42426;46.104;19.656;2024-01-16T01:43:26;14.23;;;7.20;;
56122;SDS011;42426;46.104;19.656;2024-01-16T01:46:16;15.70;;;8.98;;
56122;SDS011;42426;46.104;19.656;2024-01-16T01:48:41;15.32;;;8.35;;
56122;SDS011;42426;46.104;19.656;2024-01-16T01:51:10;12.60;;;7.55;;
56122;SDS011;42426;46.104;19.656;2024-01-16T01:53:38;13.43;;;8.10;;
56122;SDS011;42426;46.104;19.656;2024-01-16T01:56:04;10.40;;;6.47;;
56122;SDS011;42426;46.104;19.656;2024-01-16T01:58:36;14.32;;;7.30;;
56122;SDS011;42426;46.104;19.656;2024-01-16T02:01:07;14.43;;;9.07;;
56122;SDS011;42426;46.104;19.656;2024-01-16T02:03:35;15.07;;;8.55;;
56122;SDS011;42426;46.104;19.656;2024-01-16T02:06:01;14.70;;;8.23;;
56122;SDS011;42426;46.104;19.656;2024-01-16T02:08:27;15.90;;;10.90;;
56122;SDS011;42426;46.104;19.656;2024-01-16T02:10:54;16.10;;;9.68;;
56122;SDS011;42426;46.104;19.656;2024-01-16T02:13:20;15.95;;;8.27;;
56122;SDS011;42426;46.104;19.656;2024-01-16T02:15:49;15.35;;;8.40;;
56122;SDS011;42426;46.104;19.656;2024-01-16T02:18:16;16.90;;;8.27;;
56122;SDS011;42426;46.104;19.656;2024-01-16T02:20:43;10.52;;;6.85;;
56122;SDS011;42426;46.104;19.656;2024-01-16T02:23:10;11.48;;;7.88;;
56122;SDS011;42426;46.104;19.656;2024-01-16T02:25:38;14.70;;;7.95;;
56122;SDS011;42426;46.104;19.656;2024-01-16T02:28:05;11.63;;;7.43;;
56122;SDS011;42426;46.104;19.656;2024-01-16T02:30:31;13.80;;;8.65;;
56122;SDS011;42426;46.104;19.656;2024-01-16T02:32:57;11.18;;;7.55;;
56122;SDS011;42426;46.104;19.656;2024-01-16T02:35:24;16.85;;;9.55;;
56122;SDS011;42426;46.104;19.656;2024-01-16T02:37:50;15.18;;;9.20;;
56122;SDS011;42426;46.104;19.656;2024-01-16T02:40:17;16.65;;;8.30;;
56122;SDS011;42426;46.104;19.656;2024-01-16T02:42:43;14.77;;;8.18;;
56122;SDS011;42426;46.104;19.656;2024-01-16T02:45:09;11.70;;;7.25;;
56122;SDS011;42426;46.104;19.656;2024-01-16T02:47:35;18.25;;;8.88;;
56122;SDS011;42426;46.104;19.656;2024-01-16T02:50:04;16.02;;;9.35;;
56122;SDS011;42426;46.104;19.656;2024-01-16T02:52:30;16.77;;;10.48;;
56122;SDS011;42426;46.104;19.656;2024-01-16T02:54:56;12.65;;;8.13;;
56122;SDS011;42426;46.104;19.656;2024-01-16T02:57:22;15.70;;;8.32;;
56122;SDS011;42426;46.104;19.656;2024-01-16T02:59:48;15.48;;;8.25;;
56122;SDS011;42426;46.104;19.656;2024-01-16T03:02:14;15.20;;;8.07;;
56122;SDS011;42426;46.104;19.656;2024-01-16T03:04:41;14.95;;;8.05;;
56122;SDS011;42426;46.104;19.656;2024-01-16T03:07:07;15.52;;;7.82;;
56122;SDS011;42426;46.104;19.656;2024-01-16T03:09:33;14.73;;;7.65;;
56122;SDS011;42426;46.104;19.656;2024-01-16T03:11:59;11.40;;;6.30;;
56122;SDS011;42426;46.104;19.656;2024-01-16T03:14:25;13.35;;;8.25;;
56122;SDS011;42426;46.104;19.656;2024-01-16T03:16:51;11.88;;;8.15;;
56122;SDS011;42426;46.104;19.656;2024-01-16T03:19:17;12.45;;;7.65;;
56122;SDS011;42426;46.104;19.656;2024-01-16T03:21:43;13.80;;;7.70;;
56122;SDS011;42426;46.104;19.656;2024-01-16T03:24:09;13.73;;;8.35;;
56122;SDS011;42426;46.104;19.656;2024-01-16T03:26:36;12.82;;;7.45;;
56122;SDS011;42426;46.104;19.656;2024-01-16T03:29:03;14.48;;;7.93;;
56122;SDS011;42426;46.104;19.656;2024-01-16T03:31:30;11.77;;;7.72;;
56122;SDS011;42426;46.104;19.656;2024-01-16T03:33:56;12.77;;;7.55;;
56122;SDS011;42426;46.104;19.656;2024-01-16T03:36:23;13.95;;;7.70;;
56122;SDS011;42426;46.104;19.656;2024-01-16T03:38:49;15.35;;;8.05;;
56122;SDS011;42426;46.104;19.656;2024-01-16T03:41:16;14.88;;;8.73;;
56122;SDS011;42426;46.104;19.656;2024-01-16T03:43:42;12.30;;;8.00;;
56122;SDS011;42426;46.104;19.656;2024-01-16T03:46:10;12.80;;;7.80;;
56122;SDS011;42426;46.104;19.656;2024-01-16T03:48:36;14.77;;;8.45;;
56122;SDS011;42426;46.104;19.656;2024-01-16T03:51:02;16.90;;;9.00;;
56122;SDS011;42426;46.104;19.656;2024-01-16T03:53:28;14.73;;;7.43;;
56122;SDS011;42426;46.104;19.656;2024-01-16T03:55:56;16.23;;;9.13;;
56122;SDS011;42426;46.104;19.656;2024-01-16T03:58:22;14.45;;;7.93;;
56122;SDS011;42426;46.104;19.656;2024-01-16T04:00:48;13.43;;;8.00;;
56122;SDS011;42426;46.104;19.656;2024-01-16T04:03:16;15.20;;;7.80;;
56122;SDS011;42426;46.104;19.656;2024-01-16T04:05:42;15.50;;;8.93;;
56122;SDS011;42426;46.104;19.656;2024-01-16T04:08:08;12.07;;;7.28;;
56122;SDS011;42426;46.104;19.656;2024-01-16T04:10:34;13.43;;;7.40;;
56122;SDS011;42426;46.104;19.656;2024-01-16T04:13:02;14.98;;;7.88;;
56122;SDS011;42426;46.104;19.656;2024-01-16T04:15:28;16.05;;;7.47;;
56122;SDS011;42426;46.104;19.656;2024-01-16T04:17:54;16.67;;;8.50;;
56122;SDS011;42426;46.104;19.656;2024-01-16T04:20:20;15.60;;;8.45;;
56122;SDS011;42426;46.104;19.656;2024-01-16T04:22:47;15.35;;;9.10;;
56122;SDS011;42426;46.104;19.656;2024-01-16T04:25:13;13.07;;;8.02;;
56122;SDS011;42426;46.104;19.656;2024-01-16T04:27:39;17.42;;;8.55;;
56122;SDS011;42426;46.104;19.656;2024-01-16T04:30:06;13.07;;;8.10;;
56122;SDS011;42426;46.104;19.656;2024-01-16T04:32:32;16.65;;;8.00;;
56122;SDS011;42426;46.104;19.656;2024-01-16T04:34:59;14.95;;;9.05;;
56122;SDS011;42426;46.104;19.656;2024-01-16T04:37:25;17.00;;;7.57;;
56122;SDS011;42426;46.104;19.656;2024-01-16T04:39:51;11.52;;;7.53;;
56122;SDS011;42426;46.104;19.656;2024-01-16T04:42:18;13.38;;;7.68;;
56122;SDS011;42426;46.104;19.656;2024-01-16T04:44:44;14.77;;;8.07;;
56122;SDS011;42426;46.104;19.656;2024-01-16T04:47:10;13.18;;;7.60;;
56122;SDS011;42426;46.104;19.656;2024-01-16T04:49:37;11.95;;;7.68;;
56122;SDS011;42426;46.104;19.656;2024-01-16T04:52:03;17.50;;;9.30;;
56122;SDS011;42426;46.104;19.656;2024-01-16T04:54:29;14.18;;;8.80;;
56122;SDS011;42426;46.104;19.656;2024-01-16T04:56:55;17.13;;;9.80;;
56122;SDS011;42426;46.104;19.656;2024-01-16T04:59:22;14.38;;;8.80;;
56122;SDS011;42426;46.104;19.656;2024-01-16T05:01:48;15.95;;;7.35;;
56122;SDS011;42426;46.104;19.656;2024-01-16T05:04:14;13.73;;;8.20;;
56122;SDS011;42426;46.104;19.656;2024-01-16T05:06:41;16.80;;;9.07;;
56122;SDS011;42426;46.104;19.656;2024-01-16T05:09:08;15.35;;;8.18;;
56122;SDS011;42426;46.104;19.656;2024-01-16T05:11:41;16.83;;;9.02;;
56122;SDS011;42426;46.104;19.656;2024-01-16T05:14:07;15.65;;;8.95;;
56122;SDS011;42426;46.104;19.656;2024-01-16T05:16:33;14.38;;;8.82;;
56122;SDS011;42426;46.104;19.656;2024-01-16T05:18:59;15.50;;;8.68;;
56122;SDS011;42426;46.104;19.656;2024-01-16T05:21:25;16.73;;;8.38;;
56122;SDS011;42426;46.104;19.656;2024-01-16T05:23:51;15.13;;;8.98;;
56122;SDS011;42426;46.104;19.656;2024-01-16T05:26:19;18.48;;;9.82;;
56122;SDS011;42426;46.104;19.656;2024-01-16T05:28:45;15.18;;;8.43;;
56122;SDS011;42426;46.104;19.656;2024-01-16T05:31:11;17.02;;;8.57;;
56122;SDS011;42426;46.104;19.656;2024-01-16T05:33:37;16.55;;;8.98;;
56122;SDS011;42426;46.104;19.656;2024-01-16T05:36:03;14.27;;;8.95;;
56122;SDS011;42426;46.104;19.656;2024-01-16T05:38:29;17.17;;;9.80;;
56122;SDS011;42426;46.104;19.656;2024-01-16T05:40:56;19.23;;;9.77;;
56122;SDS011;42426;46.104;19.656;2024-01-16T05:43:22;17.80;;;8.90;;
56122;SDS011;42426;46.104;19.656;2024-01-16T05:45:49;19.52;;;11.13;;
56122;SDS011;42426;46.104;19.656;2024-01-16T05:48:15;16.02;;;10.20;;
56122;SDS011;42426;46.104;19.656;2024-01-16T05:50:41;17.98;;;9.52;;
56122;SDS011;42426;46.104;19.656;2024-01-16T05:53:07;21.27;;;10.38;;
56122;SDS011;42426;46.104;19.656;2024-01-16T05:55:33;19.30;;;11.40;;
56122;SDS011;42426;46.104;19.656;2024-01-16T05:58:01;22.98;;;11.73;;
56122;SDS011;42426;46.104;19.656;2024-01-16T06:00:27;19.20;;;10.93;;
56122;SDS011;42426;46.104;19.656;2024-01-16T06:02:54;19.25;;;11.10;;
56122;SDS011;42426;46.104;19.656;2024-01-16T06:05:20;21.08;;;10.98;;
56122;SDS011;42426;46.104;19.656;2024-01-16T06:07:49;19.92;;;10.18;;
56122;SDS011;42426;46.104;19.656;2024-01-16T06:10:15;24.92;;;12.55;;
56122;SDS011;42426;46.104;19.656;2024-01-16T06:12:42;20.98;;;12.27;;
56122;SDS011;42426;46.104;19.656;2024-01-16T06:15:08;30.13;;;15.93;;
56122;SDS011;42426;46.104;19.656;2024-01-16T06:17:36;29.52;;;14.38;;
56122;SDS011;42426;46.104;19.656;2024-01-16T06:20:02;32.08;;;17.20;;
56122;SDS011;42426;46.104;19.656;2024-01-16T06:22:29;41.35;;;19.42;;
56122;SDS011;42426;46.104;19.656;2024-01-16T06:24:55;35.10;;;20.23;;
56122;SDS011;42426;46.104;19.656;2024-01-16T06:27:22;35.10;;;17.75;;
56122;SDS011;42426;46.104;19.656;2024-01-16T06:29:48;37.33;;;21.40;;
56122;SDS011;42426;46.104;19.656;2024-01-16T06:32:16;39.65;;;20.60;;
56122;SDS011;42426;46.104;19.656;2024-01-16T06:34:42;31.73;;;17.83;;
56122;SDS011;42426;46.104;19.656;2024-01-16T06:37:08;41.85;;;21.52;;
56122;SDS011;42426;46.104;19.656;2024-01-16T06:39:36;35.78;;;18.83;;
56122;SDS011;42426;46.104;19.656;2024-01-16T06:42:03;42.97;;;21.35;;
56122;SDS011;42426;46.104;19.656;2024-01-16T06:44:29;45.03;;;23.77;;
56122;SDS011;42426;46.104;19.656;2024-01-16T06:46:56;39.53;;;20.67;;
56122;SDS011;42426;46.104;19.656;2024-01-16T06:49:22;33.58;;;19.40;;
56122;SDS011;42426;46.104;19.656;2024-01-16T06:51:49;35.53;;;18.83;;
56122;SDS011;42426;46.104;19.656;2024-01-16T06:54:15;30.20;;;17.13;;
56122;SDS011;42426;46.104;19.656;2024-01-16T06:56:41;37.75;;;17.90;;
56122;SDS011;42426;46.104;19.656;2024-01-16T06:59:07;31.58;;;15.07;;
56122;SDS011;42426;46.104;19.656;2024-01-16T07:01:33;26.60;;;14.52;;
56122;SDS011;42426;46.104;19.656;2024-01-16T07:03:59;30.52;;;15.80;;
56122;SDS011;42426;46.104;19.656;2024-01-16T07:06:26;34.67;;;16.50;;
56122;SDS011;42426;46.104;19.656;2024-01-16T07:08:52;31.35;;;17.65;;
56122;SDS011;42426;46.104;19.656;2024-01-16T07:11:18;33.80;;;17.85;;
56122;SDS011;42426;46.104;19.656;2024-01-16T07:13:46;31.73;;;17.70;;
56122;SDS011;42426;46.104;19.656;2024-01-16T07:16:12;31.38;;;17.77;;
56122;SDS011;42426;46.104;19.656;2024-01-16T07:18:39;32.60;;;18.02;;
56122;SDS011;42426;46.104;19.656;2024-01-16T07:21:15;34.08;;;17.25;;
56122;SDS011;42426;46.104;19.656;2024-01-16T07:23:41;36.13;;;21.33;;
56122;SDS011;42426;46.104;19.656;2024-01-16T07:26:08;31.83;;;18.27;;
56122;SDS011;42426;46.104;19.656;2024-01-16T07:28:34;33.35;;;19.65;;
56122;SDS011;42426;46.104;19.656;2024-01-16T07:31:00;37.10;;;20.05;;
56122;SDS011;42426;46.104;19.656;2024-01-16T07:33:26;37.58;;;19.85;;
56122;SDS011;42426;46.104;19.656;2024-01-16T07:35:52;38.83;;;20.42;;
56122;SDS011;42426;46.104;19.656;2024-01-16T07:38:19;39.22;;;21.67;;
56122;SDS011;42426;46.104;19.656;2024-01-16T07:40:45;58.42;;;29.95;;
56122;SDS011;42426;46.104;19.656;2024-01-16T07:43:12;46.63;;;22.77;;
56122;SDS011;42426;46.104;19.656;2024-01-16T07:45:38;40.03;;;23.85;;
56122;SDS011;42426;46.104;19.656;2024-01-16T07:48:05;40.83;;;22.48;;
56122;SDS011;42426;46.104;19.656;2024-01-16T07:50:31;43.72;;;22.92;;
56122;SDS011;42426;46.104;19.656;2024-01-16T07:52:57;34.00;;;19.17;;
56122;SDS011;42426;46.104;19.656;2024-01-16T07:55:23;37.17;;;18.58;;
56122;SDS011;42426;46.104;19.656;2024-01-16T07:57:49;31.95;;;16.88;;
56122;SDS011;42426;46.104;19.656;2024-01-16T08:00:16;21.52;;;13.50;;
56122;SDS011;42426;46.104;19.656;2024-01-16T08:02:42;26.83;;;15.38;;
56122;SDS011;42426;46.104;19.656;2024-01-16T08:05:08;36.63;;;18.88;;
56122;SDS011;42426;46.104;19.656;2024-01-16T08:07:34;52.05;;;25.88;;
56122;SDS011;42426;46.104;19.656;2024-01-16T08:10:00;71.07;;;35.95;;
56122;SDS011;42426;46.104;19.656;2024-01-16T08:12:27;61.78;;;30.90;;
56122;SDS011;42426;46.104;19.656;2024-01-16T08:14:53;53.75;;;24.38;;
56122;SDS011;42426;46.104;19.656;2024-01-16T08:17:19;58.42;;;32.75;;
56122;SDS011;42426;46.104;19.656;2024-01-16T08:19:45;65.55;;;34.60;;
56122;SDS011;42426;46.104;19.656;2024-01-16T08:22:11;67.75;;;34.08;;
56122;SDS011;42426;46.104;19.656;2024-01-16T08:24:38;63.42;;;35.10;;
56122;SDS011;42426;46.104;19.656;2024-01-16T08:27:04;84.75;;;44.47;;
56122;SDS011;42426;46.104;19.656;2024-01-16T08:29:30;72.70;;;39.97;;
56122;SDS011;42426;46.104;19.656;2024-01-16T08:31:59;45.15;;;24.50;;
56122;SDS011;42426;46.104;19.656;2024-01-16T08:34:25;41.38;;;20.33;;
56122;SDS011;42426;46.104;19.656;2024-01-16T08:36:51;40.17;;;21.85;;
56122;SDS011;42426;46.104;19.656;2024-01-16T08:39:21;38.63;;;20.15;;
56122;SDS011;42426;46.104;19.656;2024-01-16T08:41:48;37.17;;;18.77;;
56122;SDS011;42426;46.104;19.656;2024-01-16T08:44:14;29.73;;;17.67;;
56122;SDS011;42426;46.104;19.656;2024-01-16T08:46:40;29.02;;;17.35;;
56122;SDS011;42426;46.104;19.656;2024-01-16T08:49:06;45.72;;;25.92;;
56122;SDS011;42426;46.104;19.656;2024-01-16T08:51:34;44.03;;;25.02;;
56122;SDS011;42426;46.104;19.656;2024-01-16T08:54:00;28.75;;;15.82;;
56122;SDS011;42426;46.104;19.656;2024-01-16T08:56:26;31.25;;;17.00;;
56122;SDS011;42426;46.104;19.656;2024-01-16T08:58:52;45.28;;;23.80;;
56122;SDS011;42426;46.104;19.656;2024-01-16T09:01:19;31.98;;;20.83;;
56122;SDS011;42426;46.104;19.656;2024-01-16T09:03:46;37.95;;;20.83;;
56122;SDS011;42426;46.104;19.656;2024-01-16T09:06:12;35.05;;;18.60;;
56122;SDS011;42426;46.104;19.656;2024-01-16T09:08:38;45.40;;;22.75;;
56122;SDS011;42426;46.104;19.656;2024-01-16T09:11:05;31.55;;;19.48;;
56122;SDS011;42426;46.104;19.656;2024-01-16T09:13:31;20.40;;;13.25;;
56122;SDS011;42426;46.104;19.656;2024-01-16T09:15:58;23.67;;;12.80;;
56122;SDS011;42426;46.104;19.656;2024-01-16T09:18:25;22.95;;;14.02;;
56122;SDS011;42426;46.104;19.656;2024-01-16T09:20:51;15.30;;;9.93;;
56122;SDS011;42426;46.104;19.656;2024-01-16T09:23:18;18.98;;;10.80;;
56122;SDS011;42426;46.104;19.656;2024-01-16T09:25:44;13.95;;;8.52;;
56122;SDS011;42426;46.104;19.656;2024-01-16T09:28:10;24.73;;;16.27;;
56122;SDS011;42426;46.104;19.656;2024-01-16T09:30:37;29.67;;;16.55;;
56122;SDS011;42426;46.104;19.656;2024-01-16T09:33:03;23.33;;;13.90;;
56122;SDS011;42426;46.104;19.656;2024-01-16T09:35:32;24.33;;;12.23;;
56122;SDS011;42426;46.104;19.656;2024-01-16T09:37:58;19.88;;;9.77;;
56122;SDS011;42426;46.104;19.656;2024-01-16T09:40:25;24.33;;;13.75;;
56122;SDS011;42426;46.104;19.656;2024-01-16T09:42:51;23.08;;;12.05;;
56122;SDS011;42426;46.104;19.656;2024-01-16T09:45:19;20.20;;;11.40;;
56122;SDS011;42426;46.104;19.656;2024-01-16T09:47:49;18.95;;;10.90;;
56122;SDS011;42426;46.104;19.656;2024-01-16T09:50:18;14.80;;;8.95;;
56122;SDS011;42426;46.104;19.656;2024-01-16T09:52:47;24.88;;;13.93;;
56122;SDS011;42426;46.104;19.656;2024-01-16T09:55:14;19.88;;;12.65;;
56122;SDS011;42426;46.104;19.656;2024-01-16T09:57:41;21.60;;;10.88;;
56122;SDS011;42426;46.104;19.656;2024-01-16T10:00:11;16.55;;;10.90;;
56122;SDS011;42426;46.104;19.656;2024-01-16T10:02:41;21.33;;;11.55;;
56122;SDS011;42426;46.104;19.656;2024-01-16T10:05:08;26.13;;;15.00;;
56122;SDS011;42426;46.104;19.656;2024-01-16T10:07:35;25.35;;;13.45;;
56122;SDS011;42426;46.104;19.656;2024-01-16T10:10:04;30.50;;;15.40;;
56122;SDS011;42426;46.104;19.656;2024-01-16T10:12:31;28.48;;;14.63;;
56122;SDS011;42426;46.104;19.656;2024-01-16T10:14:58;18.75;;;11.40;;
56122;SDS011;42426;46.104;19.656;2024-01-16T10:17:43;20.90;;;12.68;;
56122;SDS011;42426;46.104;19.656;2024-01-16T10:20:09;20.30;;;10.63;;
56122;SDS011;42426;46.104;19.656;2024-01-16T10:22:41;26.73;;;13.77;;
56122;SDS011;42426;46.104;19.656;2024-01-16T10:25:10;51.47;;;24.83;;
56122;SDS011;42426;46.104;19.656;2024-01-16T10:27:38;53.85;;;31.38;;
56122;SDS011;42426;46.104;19.656;2024-01-16T10:30:05;67.93;;;35.47;;
56122;SDS011;42426;46.104;19.656;2024-01-16T10:32:33;33.30;;;20.67;;
56122;SDS011;42426;46.104;19.656;2024-01-16T10:35:05;31.08;;;17.42;;
56122;SDS011;42426;46.104;19.656;2024-01-16T10:40:08;22.08;;;12.73;;
56122;SDS011;42426;46.104;19.656;2024-01-16T10:42:34;22.88;;;12.05;;
56122;SDS011;42426;46.104;19.656;2024-01-16T10:45:00;21.27;;;11.98;;
56122;SDS011;42426;46.104;19.656;2024-01-16T10:47:26;22.95;;;12.75;;
56122;SDS011;42426;46.104;19.656;2024-01-16T10:49:53;20.17;;;11.77;;
56122;SDS011;42426;46.104;19.656;2024-01-16T10:52:19;21.02;;;13.63;;
56122;SDS011;42426;46.104;19.656;2024-01-16T10:54:52;20.02;;;12.60;;
56122;SDS011;42426;46.104;19.656;2024-01-16T10:57:21;27.52;;;15.20;;
56122;SDS011;42426;46.104;19.656;2024-01-16T11:00:21;21.95;;;12.50;;
56122;SDS011;42426;46.104;19.656;2024-01-16T11:02:49;20.83;;;11.82;;
56122;SDS011;42426;46.104;19.656;2024-01-16T11:05:16;17.25;;;11.00;;
56122;SDS011;42426;46.104;19.656;2024-01-16T11:07:43;28.13;;;12.52;;
56122;SDS011;42426;46.104;19.656;2024-01-16T11:10:10;23.42;;;12.00;;
56122;SDS011;42426;46.104;19.656;2024-01-16T11:12:38;31.38;;;14.98;;
56122;SDS011;42426;46.104;19.656;2024-01-16T11:15:08;25.30;;;15.75;;
56122;SDS011;42426;46.104;19.656;2024-01-16T11:17:37;18.95;;;11.40;;
56122;SDS011;42426;46.104;19.656;2024-01-16T11:20:05;24.35;;;13.90;;
56122;SDS011;42426;46.104;19.656;2024-01-16T11:22:36;26.70;;;14.88;;
56122;SDS011;42426;46.104;19.656;2024-01-16T11:25:10;33.90;;;19.17;;
56122;SDS011;42426;46.104;19.656;2024-01-16T11:27:37;38.97;;;19.92;;
56122;SDS011;42426;46.104;19.656;2024-01-16T11:30:07;34.50;;;19.15;;
56122;SDS011;42426;46.104;19.656;2024-01-16T11:32:40;38.67;;;19.13;;
56122;SDS011;42426;46.104;19.656;2024-01-16T11:35:07;39.13;;;18.73;;
56122;SDS011;42426;46.104;19.656;2024-01-16T11:37:33;39.83;;;21.48;;
56122;SDS011;42426;46.104;19.656;2024-01-16T11:40:22;46.83;;;21.55;;
56122;SDS011;42426;46.104;19.656;2024-01-16T11:42:49;41.13;;;20.92;;
56122;SDS011;42426;46.104;19.656;2024-01-16T11:48:15;23.85;;;12.85;;
56122;SDS011;42426;46.104;19.656;2024-01-16T11:50:42;28.40;;;16.30;;
56122;SDS011;42426;46.104;19.656;2024-01-16T11:53:08;28.10;;;16.70;;
56122;SDS011;42426;46.104;19.656;2024-01-16T11:55:35;38.10;;;20.38;;
56122;SDS011;42426;46.104;19.656;2024-01-16T12:00:47;20.67;;;13.25;;
56122;SDS011;42426;46.104;19.656;2024-01-16T12:03:18;24.25;;;11.77;;
56122;SDS011;42426;46.104;19.656;2024-01-16T12:05:44;22.63;;;10.45;;
56122;SDS011;42426;46.104;19.656;2024-01-16T12:08:10;20.23;;;9.88;;
56122;SDS011;42426;46.104;19.656;2024-01-16T12:10:47;21.83;;;10.85;;
56122;SDS011;42426;46.104;19.656;2024-01-16T12:13:13;31.00;;;14.65;;
56122;SDS011;42426;46.104;19.656;2024-01-16T12:15:40;19.98;;;11.40;;
56122;SDS011;42426;46.104;19.656;2024-01-16T12:18:06;21.77;;;12.43;;
56122;SDS011;42426;46.104;19.656;2024-01-16T12:20:33;27.73;;;14.48;;
56122;SDS011;42426;46.104;19.656;2024-01-16T12:25:26;33.85;;;15.88;;
56122;SDS011;42426;46.104;19.656;2024-01-16T12:30:33;27.35;;;14.00;;
56122;SDS011;42426;46.104;19.656;2024-01-16T12:33:05;30.90;;;13.93;;
56122;SDS011;42426;46.104;19.656;2024-01-16T12:35:42;27.13;;;15.35;;
56122;SDS011;42426;46.104;19.656;2024-01-16T12:38:12;37.90;;;19.70;;
56122;SDS011;42426;46.104;19.656;2024-01-16T12:40:39;41.10;;;19.95;;
56122;SDS011;42426;46.104;19.656;2024-01-16T12:43:07;33.30;;;19.92;;
56122;SDS011;42426;46.104;19.656;2024-01-16T12:45:34;33.85;;;18.77;;
56122;SDS011;42426;46.104;19.656;2024-01-16T12:48:01;40.67;;;20.23;;
56122;SDS011;42426;46.104;19.656;2024-01-16T12:50:30;37.33;;;20.75;;
56122;SDS011;42426;46.104;19.656;2024-01-16T12:53:06;42.65;;;24.00;;
56122;SDS011;42426;46.104;19.656;2024-01-16T12:55:36;47.03;;;24.77;;
56122;SDS011;42426;46.104;19.656;2024-01-16T12:58:18;33.05;;;16.95;;
56122;SDS011;42426;46.104;19.656;2024-01-16T13:00:45;29.88;;;18.10;;
56122;SDS011;42426;46.104;19.656;2024-01-16T13:03:14;38.72;;;20.58;;
56122;SDS011;42426;46.104;19.656;2024-01-16T13:05:43;45.58;;;22.38;;
56122;SDS011;42426;46.104;19.656;2024-01-16T13:08:09;39.10;;;21.33;;
56122;SDS011;42426;46.104;19.656;2024-01-16T13:10:35;46.90;;;21.25;;
56122;SDS011;42426;46.104;19.656;2024-01-16T13:13:15;39.72;;;20.13;;
56122;SDS011;42426;46.104;19.656;2024-01-16T13:15:42;38.33;;;18.83;;
56122;SDS011;42426;46.104;19.656;2024-01-16T13:18:22;33.95;;;19.75;;
56122;SDS011;42426;46.104;19.656;2024-01-16T13:20:51;35.92;;;18.85;;
56122;SDS011;42426;46.104;19.656;2024-01-16T13:23:18;32.88;;;19.55;;
56122;SDS011;42426;46.104;19.656;2024-01-16T13:25:46;37.05;;;19.77;;
56122;SDS011;42426;46.104;19.656;2024-01-16T13:28:12;34.63;;;19.02;;
56122;SDS011;42426;46.104;19.656;2024-01-16T13:30:41;29.20;;;16.70;;
56122;SDS011;42426;46.104;19.656;2024-01-16T13:33:07;31.67;;;17.40;;
56122;SDS011;42426;46.104;19.656;2024-01-16T13:35:34;31.65;;;18.10;;
56122;SDS011;42426;46.104;19.656;2024-01-16T13:38:01;33.53;;;17.08;;
56122;SDS011;42426;46.104;19.656;2024-01-16T13:40:29;40.58;;;23.50;;
56122;SDS011;42426;46.104;19.656;2024-01-16T13:42:55;50.80;;;23.50;;
56122;SDS011;42426;46.104;19.656;2024-01-16T13:45:22;52.22;;;27.42;;
56122;SDS011;42426;46.104;19.656;2024-01-16T13:47:48;68.38;;;35.15;;
56122;SDS011;42426;46.104;19.656;2024-01-16T13:50:15;57.42;;;30.70;;
56122;SDS011;42426;46.104;19.656;2024-01-16T13:52:42;62.75;;;30.25;;
56122;SDS011;42426;46.104;19.656;2024-01-16T13:55:09;64.65;;;31.58;;
56122;SDS011;42426;46.104;19.656;2024-01-16T13:57:36;63.58;;;32.00;;
56122;SDS011;42426;46.104;19.656;2024-01-16T14:00:03;71.57;;;32.92;;
56122;SDS011;42426;46.104;19.656;2024-01-16T14:02:29;75.45;;;34.67;;
56122;SDS011;42426;46.104;19.656;2024-01-16T14:04:55;68.18;;;33.88;;
56122;SDS011;42426;46.104;19.656;2024-01-16T14:07:21;89.35;;;42.80;;
56122;SDS011;42426;46.104;19.656;2024-01-16T14:09:48;104.63;;;52.60;;
56122;SDS011;42426;46.104;19.656;2024-01-16T14:12:14;89.05;;;45.78;;
56122;SDS011;42426;46.104;19.656;2024-01-16T14:14:40;90.15;;;45.22;;
56122;SDS011;42426;46.104;19.656;2024-01-16T14:17:07;83.82;;;40.03;;
56122;SDS011;42426;46.104;19.656;2024-01-16T14:19:34;104.60;;;50.13;;
56122;SDS011;42426;46.104;19.656;2024-01-16T14:22:00;84.05;;;39.00;;
56122;SDS011;42426;46.104;19.656;2024-01-16T14:24:26;79.05;;;39.75;;
56122;SDS011;42426;46.104;19.656;2024-01-16T14:26:53;71.72;;;32.72;;